createdAt,value
2023-03-20T00:02:22.581Z,6.03
2023-03-20T00:04:49.122Z,7.45
2023-03-20T00:07:21.787Z,7.45
2023-03-20T00:09:51.802Z,9.35
2023-03-20T00:12:28.775Z,9.27
2023-03-20T00:14:55.606Z,7.75
2023-03-20T00:17:22.116Z,7.88
2023-03-20T00:19:48.973Z,8.75
2023-03-20T00:22:15.483Z,9.15
2023-03-20T00:24:42.086Z,8.88
2023-03-20T00:27:13.811Z,9.70
2023-03-20T00:29:40.537Z,13.73
2023-03-20T00:32:16.041Z,14.43
2023-03-20T00:34:48.809Z,17.20
2023-03-20T00:37:15.437Z,15.70
2023-03-20T00:39:41.929Z,17.45
2023-03-20T00:42:20.571Z,17.98
2023-03-20T00:44:55.698Z,22.42
2023-03-20T00:47:24.292Z,24.38
2023-03-20T00:49:52.460Z,23.50
2023-03-20T00:52:20.670Z,23.30
2023-03-20T00:54:47.379Z,24.88
2023-03-20T00:57:26.588Z,25.25
2023-03-20T01:00:11.849Z,27.15
2023-03-20T01:02:38.618Z,25.92
2023-03-20T01:05:06.579Z,27.70
2023-03-20T01:07:33.822Z,29.75
2023-03-20T01:10:00.474Z,28.02
2023-03-20T01:12:27.389Z,27.90
2023-03-20T01:14:56.733Z,28.73
2023-03-20T01:17:24.610Z,27.08
2023-03-20T01:19:51.125Z,29.90
2023-03-20T01:22:18.253Z,29.10
2023-03-20T01:24:45.472Z,29.55
2023-03-20T01:27:17.814Z,29.85
2023-03-20T01:29:44.957Z,32.15
2023-03-20T01:32:22.245Z,31.33
2023-03-20T01:34:48.948Z,30.77
2023-03-20T01:37:27.180Z,30.77
2023-03-20T01:39:54.370Z,31.75
2023-03-20T01:42:20.925Z,31.88
2023-03-20T01:44:48.486Z,35.38
2023-03-20T01:47:28.435Z,36.40
2023-03-20T01:50:19.753Z,34.90
2023-03-20T01:52:48.838Z,36.33
2023-03-20T01:55:15.572Z,35.67
2023-03-20T01:57:42.124Z,35.45
2023-03-20T02:00:15.560Z,35.47
2023-03-20T02:02:45.134Z,41.40
2023-03-20T02:05:14.350Z,35.92
2023-03-20T02:07:40.927Z,38.67
2023-03-20T02:10:19.024Z,37.92
2023-03-20T02:12:47.423Z,37.20
2023-03-20T02:15:16.966Z,36.63
2023-03-20T02:17:44.295Z,39.78
2023-03-20T02:20:25.502Z,36.42
2023-03-20T02:23:00.765Z,38.27
2023-03-20T02:25:52.778Z,41.10
2023-03-20T02:28:33.599Z,42.17
2023-03-20T02:31:15.453Z,40.90
2023-03-20T02:33:47.657Z,40.75
2023-03-20T02:36:32.340Z,40.33
2023-03-20T02:39:29.579Z,39.28
2023-03-20T02:41:59.101Z,44.40
2023-03-20T02:44:40.212Z,41.97
2023-03-20T02:47:47.844Z,42.70
2023-03-20T02:50:27.841Z,50.80
2023-03-20T02:53:12.846Z,55.33
2023-03-20T02:55:44.027Z,57.45
2023-03-20T02:58:22.498Z,59.78
2023-03-20T03:01:03.575Z,63.05
2023-03-20T03:03:51.416Z,67.55
2023-03-20T03:06:24.224Z,73.85
2023-03-20T03:09:00.163Z,75.50
2023-03-20T03:11:26.717Z,72.43
2023-03-20T03:13:56.306Z,80.72
2023-03-20T03:16:27.807Z,79.47
2023-03-20T03:19:13.175Z,75.45
2023-03-20T03:21:40.765Z,73.90
2023-03-20T03:24:39.923Z,72.53
2023-03-20T03:27:18.733Z,70.03
2023-03-20T03:29:51.422Z,70.80
2023-03-20T03:32:33.497Z,69.82
2023-03-20T03:37:34.127Z,71.20
2023-03-20T03:40:08.068Z,76.80
2023-03-20T03:43:32.196Z,67.63
2023-03-20T03:46:09.389Z,69.93
2023-03-20T03:48:43.759Z,66.70
2023-03-20T03:51:17.870Z,69.75
2023-03-20T03:53:52.302Z,62.78
2023-03-20T03:56:24.111Z,62.67
2023-03-20T03:58:57.813Z,66.00
2023-03-20T04:01:27.502Z,61.42
2023-03-20T04:04:00.965Z,64.07
2023-03-20T04:06:28.448Z,64.65
2023-03-20T04:08:55.169Z,67.00
2023-03-20T04:11:24.611Z,58.67
2023-03-20T04:13:52.359Z,66.25
2023-03-20T04:16:20.997Z,60.35
2023-03-20T04:18:48.024Z,58.55
2023-03-20T04:21:16.120Z,60.78
2023-03-20T04:23:43.349Z,63.47
2023-03-20T04:26:09.957Z,65.13
2023-03-20T04:28:36.832Z,62.88
2023-03-20T04:31:04.002Z,60.90
2023-03-20T04:33:30.777Z,55.00
2023-03-20T04:35:57.638Z,60.17
2023-03-20T04:38:24.707Z,63.65
2023-03-20T04:40:51.510Z,57.63
2023-03-20T04:43:18.272Z,58.03
2023-03-20T04:45:44.795Z,59.35
2023-03-20T04:48:11.324Z,54.67
2023-03-20T04:50:38.070Z,49.95
2023-03-20T04:53:05.060Z,54.20
2023-03-20T04:55:31.884Z,55.53
2023-03-20T04:57:58.525Z,54.30
2023-03-20T05:00:25.175Z,51.63
2023-03-20T05:02:51.697Z,51.70
2023-03-20T05:05:18.148Z,48.28
2023-03-20T05:07:44.789Z,45.80
2023-03-20T05:10:14.777Z,46.47
2023-03-20T05:12:41.358Z,45.33
2023-03-20T05:15:08.536Z,46.67
2023-03-20T05:17:35.256Z,42.80
2023-03-20T05:20:01.847Z,45.30
2023-03-20T05:22:28.390Z,44.10
2023-03-20T05:24:54.862Z,40.95
2023-03-20T05:27:21.308Z,43.90
2023-03-20T05:29:47.900Z,44.22
2023-03-20T05:32:15.629Z,38.67
2023-03-20T05:34:42.117Z,48.70
2023-03-20T05:37:08.662Z,46.13
2023-03-20T05:39:35.506Z,46.15
2023-03-20T05:42:02.022Z,46.65
2023-03-20T05:44:28.561Z,48.13
2023-03-20T05:46:55.301Z,47.60
2023-03-20T05:49:21.817Z,49.88
2023-03-20T05:51:48.411Z,48.90
2023-03-20T05:54:16.186Z,50.78
2023-03-20T05:56:42.682Z,48.22
2023-03-20T05:59:09.193Z,49.08
2023-03-20T06:01:35.742Z,44.22
2023-03-20T06:04:02.412Z,50.75
2023-03-20T06:06:28.914Z,49.33
2023-03-20T06:08:55.384Z,50.40
2023-03-20T06:11:21.819Z,47.75
2023-03-20T06:13:49.382Z,48.63
2023-03-20T06:16:15.944Z,51.80
2023-03-20T06:18:42.455Z,48.17
2023-03-20T06:21:09.349Z,56.25
2023-03-20T06:23:36.341Z,51.75
2023-03-20T06:26:02.951Z,47.53
2023-03-20T06:28:30.104Z,51.15
2023-03-20T06:30:57.190Z,52.78
2023-03-20T06:33:24.837Z,51.53
2023-03-20T06:35:51.335Z,54.22
2023-03-20T06:38:17.818Z,54.30
2023-03-20T06:40:45.222Z,51.70
2023-03-20T06:43:12.549Z,54.10
2023-03-20T06:45:39.237Z,52.28
2023-03-20T06:48:09.444Z,49.60
2023-03-20T06:50:36.484Z,56.60
2023-03-20T06:53:03.502Z,49.20
2023-03-20T06:55:30.270Z,52.85
2023-03-20T06:57:56.993Z,53.72
2023-03-20T07:00:23.898Z,52.58
2023-03-20T07:02:50.434Z,53.63
2023-03-20T07:05:17.592Z,53.78
2023-03-20T07:07:44.221Z,54.80
2023-03-20T07:10:12.423Z,59.53
2023-03-20T07:12:39.445Z,52.03
2023-03-20T07:15:09.532Z,53.97
2023-03-20T07:17:35.995Z,51.95
2023-03-20T07:20:03.097Z,58.20
2023-03-20T07:22:31.330Z,55.15
2023-03-20T07:24:58.252Z,51.67
2023-03-20T07:27:24.763Z,53.33
2023-03-20T07:29:51.422Z,48.67
2023-03-20T07:32:18.100Z,50.90
2023-03-20T07:34:45.008Z,56.00
2023-03-20T07:37:11.591Z,52.45
2023-03-20T07:39:38.101Z,52.20
2023-03-20T07:42:04.889Z,55.53
2023-03-20T07:44:31.371Z,49.17
2023-03-20T07:46:57.986Z,57.13
2023-03-20T07:49:24.455Z,50.95
2023-03-20T07:51:51.007Z,52.17
2023-03-20T07:54:17.942Z,57.65
2023-03-20T07:56:44.453Z,50.45
2023-03-20T07:59:12.760Z,58.25
2023-03-20T08:01:39.590Z,51.38
2023-03-20T08:04:06.284Z,59.88
2023-03-20T08:06:32.881Z,55.33
2023-03-20T08:08:59.558Z,56.65
2023-03-20T08:11:26.359Z,51.95
2023-03-20T08:13:52.903Z,48.58
2023-03-20T08:16:19.778Z,52.25
2023-03-20T08:18:52.638Z,47.00
2023-03-20T08:21:19.783Z,48.05
2023-03-20T08:23:46.222Z,47.13
2023-03-20T08:26:13.035Z,45.33
2023-03-20T08:28:47.471Z,45.53
2023-03-20T08:31:15.679Z,44.05
2023-03-20T08:33:42.146Z,44.08
2023-03-20T08:36:09.042Z,42.30
2023-03-20T08:38:35.959Z,44.25
2023-03-20T08:41:02.716Z,42.80
2023-03-20T08:43:29.449Z,44.30
2023-03-20T08:45:56.127Z,39.97
2023-03-20T08:48:22.686Z,46.05
2023-03-20T08:50:49.213Z,43.58
2023-03-20T08:53:15.736Z,47.88
2023-03-20T08:55:48.022Z,44.83
2023-03-20T08:58:14.581Z,45.08
2023-03-20T09:00:42.063Z,55.92
2023-03-20T09:03:14.849Z,52.03
2023-03-20T09:05:44.243Z,51.42
2023-03-20T09:08:10.905Z,60.10
2023-03-20T09:10:37.454Z,60.50
2023-03-20T09:13:15.481Z,58.22
2023-03-20T09:15:51.413Z,60.53
2023-03-20T09:18:19.611Z,56.40
2023-03-20T09:20:47.248Z,59.97
2023-03-20T09:23:13.786Z,59.28
2023-03-20T09:25:40.757Z,60.45
2023-03-20T09:28:07.557Z,60.20
2023-03-20T09:30:34.612Z,53.10
2023-03-20T09:33:01.322Z,53.92
2023-03-20T09:35:27.950Z,50.42
2023-03-20T09:37:54.453Z,45.80
2023-03-20T09:40:31.281Z,44.90
2023-03-20T09:43:10.187Z,43.67
2023-03-20T09:46:08.442Z,40.25
2023-03-20T09:48:44.666Z,41.53
2023-03-20T09:51:35.867Z,36.55
2023-03-20T09:54:10.884Z,37.40
2023-03-20T09:56:38.043Z,37.78
2023-03-20T09:59:06.675Z,39.88
2023-03-20T10:01:48.352Z,38.80
2023-03-20T10:04:14.971Z,40.55
2023-03-20T10:06:41.500Z,41.33
2023-03-20T10:09:24.801Z,38.35
2023-03-20T10:12:00.603Z,41.20
2023-03-20T10:14:45.059Z,38.55
2023-03-20T10:17:48.785Z,45.30
2023-03-20T10:20:24.092Z,39.80
2023-03-20T10:23:00.691Z,40.85
2023-03-20T10:25:53.921Z,39.38
2023-03-20T10:28:45.846Z,37.72
2023-03-20T10:31:31.288Z,41.38
2023-03-20T10:34:03.509Z,36.92
2023-03-20T10:36:39.002Z,37.35
2023-03-20T10:39:37.739Z,33.65
2023-03-20T10:42:14.680Z,39.72
2023-03-20T10:44:45.237Z,36.85
2023-03-20T10:47:17.045Z,36.63
2023-03-20T10:52:18.038Z,33.88
2023-03-20T10:57:26.317Z,35.00
2023-03-20T10:59:58.331Z,33.08
2023-03-20T11:02:30.868Z,41.47
2023-03-20T11:05:00.609Z,33.40
2023-03-20T11:07:32.196Z,31.50
2023-03-20T11:10:04.800Z,38.92
2023-03-20T11:12:37.456Z,43.08
2023-03-20T11:15:20.566Z,40.10
2023-03-20T11:18:01.552Z,36.63
2023-03-20T11:20:35.690Z,33.42
2023-03-20T11:23:08.436Z,34.17
2023-03-20T11:25:38.507Z,33.53
2023-03-20T11:28:40.656Z,34.85
2023-03-20T11:31:35.271Z,32.58
2023-03-20T11:34:04.629Z,30.05
2023-03-20T11:36:34.595Z,27.38
2023-03-20T11:39:10.396Z,28.48
2023-03-20T11:41:49.973Z,27.67
2023-03-20T11:44:23.892Z,27.55
2023-03-20T11:46:57.716Z,24.48
2023-03-20T11:49:27.619Z,26.17
2023-03-20T11:51:59.730Z,20.85
2023-03-20T11:54:27.064Z,23.80
2023-03-20T11:56:58.728Z,21.50
2023-03-20T11:59:34.319Z,22.77
2023-03-20T12:02:04.890Z,21.67
2023-03-20T12:04:43.964Z,20.92
2023-03-20T12:07:17.933Z,21.20
2023-03-20T12:10:10.461Z,23.48
2023-03-20T12:12:46.682Z,25.08
2023-03-20T12:15:13.127Z,21.45
2023-03-20T12:17:46.148Z,22.95
2023-03-20T12:20:37.377Z,19.67
2023-03-20T12:23:09.924Z,20.48
2023-03-20T12:25:58.182Z,21.05
2023-03-20T12:28:40.632Z,19.73
2023-03-20T12:31:16.253Z,20.52
2023-03-20T12:34:10.462Z,21.88
2023-03-20T12:36:47.032Z,21.80
2023-03-20T12:39:24.151Z,21.00
2023-03-20T12:41:59.844Z,20.15
2023-03-20T12:44:48.482Z,22.90
2023-03-20T12:47:42.763Z,21.33
2023-03-20T12:50:18.203Z,18.98
2023-03-20T12:53:23.171Z,18.02
2023-03-20T12:55:52.244Z,17.13
2023-03-20T12:58:43.527Z,15.98
2023-03-20T13:01:47.469Z,14.90
2023-03-20T13:04:38.747Z,15.95
2023-03-20T13:07:20.512Z,17.08
2023-03-20T13:10:12.541Z,17.50
2023-03-20T13:13:12.962Z,15.75
2023-03-20T13:16:08.817Z,15.75
2023-03-20T13:18:53.995Z,17.67
2023-03-20T13:21:33.032Z,15.02
2023-03-20T13:24:32.158Z,17.00
2023-03-20T13:27:01.583Z,16.42
2023-03-20T13:29:42.007Z,15.52
2023-03-20T13:32:31.520Z,17.73
2023-03-20T13:35:25.222Z,14.45
2023-03-20T13:37:58.929Z,15.38
2023-03-20T13:40:33.685Z,15.93
2023-03-20T13:43:30.929Z,16.13
2023-03-20T13:46:08.730Z,15.60
2023-03-20T13:48:45.785Z,15.23
2023-03-20T13:51:15.310Z,16.95
2023-03-20T13:54:07.009Z,17.10
2023-03-20T13:56:59.983Z,17.13
2023-03-20T13:59:51.006Z,17.17
2023-03-20T14:02:29.355Z,18.10
2023-03-20T14:05:12.102Z,17.73
2023-03-20T14:07:44.470Z,20.17
2023-03-20T14:10:25.996Z,16.98
2023-03-20T14:13:00.510Z,18.02
2023-03-20T14:15:31.934Z,17.38
2023-03-20T14:18:03.237Z,20.50
2023-03-20T14:20:34.231Z,16.65
2023-03-20T14:23:01.756Z,16.27
2023-03-20T14:25:35.064Z,14.48
2023-03-20T14:28:09.587Z,15.80
2023-03-20T14:30:36.640Z,18.13
2023-03-20T14:33:24.174Z,18.45
2023-03-20T14:36:11.288Z,18.15
2023-03-20T14:38:57.150Z,14.68
2023-03-20T14:42:05.409Z,18.67
2023-03-20T14:44:49.920Z,17.13
2023-03-20T14:47:34.068Z,16.13
2023-03-20T14:50:28.025Z,16.65
2023-03-20T14:53:15.343Z,13.90
2023-03-20T14:55:51.298Z,16.25
2023-03-20T14:58:51.265Z,14.43
2023-03-20T15:01:20.814Z,15.60
2023-03-20T15:04:04.970Z,17.15
2023-03-20T15:06:33.344Z,17.27
2023-03-20T15:09:06.856Z,15.52
2023-03-20T15:11:34.931Z,14.40
2023-03-20T15:14:06.454Z,13.00
2023-03-20T15:16:36.931Z,17.17
2023-03-20T15:19:18.093Z,14.70
2023-03-20T15:21:46.072Z,14.68
2023-03-20T15:24:26.985Z,13.25
2023-03-20T15:26:57.648Z,15.65
2023-03-20T15:29:24.779Z,13.63
2023-03-20T15:32:14.062Z,15.30
2023-03-20T15:34:42.581Z,16.13
2023-03-20T15:37:15.389Z,15.60
2023-03-20T15:39:45.311Z,18.20
2023-03-20T15:42:17.270Z,13.15
2023-03-20T15:47:20.718Z,13.75
2023-03-20T15:49:57.176Z,13.05
2023-03-20T15:52:32.099Z,13.60
2023-03-20T15:55:02.792Z,14.63
2023-03-20T15:57:38.681Z,12.95
2023-03-20T16:00:08.244Z,14.18
2023-03-20T16:02:39.071Z,15.07
2023-03-20T16:05:12.771Z,17.33
2023-03-20T16:07:39.265Z,13.60
2023-03-20T16:10:43.024Z,12.00
2023-03-20T16:13:19.519Z,14.15
2023-03-20T16:15:46.485Z,17.58
2023-03-20T16:18:18.065Z,12.57
2023-03-20T16:20:48.893Z,13.25
2023-03-20T16:23:27.346Z,17.95
2023-03-20T16:25:59.014Z,20.27
2023-03-20T16:28:27.915Z,13.43
2023-03-20T16:31:10.453Z,22.90
2023-03-20T16:33:39.660Z,12.90
2023-03-20T16:36:07.011Z,17.02
2023-03-20T16:38:35.939Z,14.75
2023-03-20T16:41:21.360Z,14.25
2023-03-20T16:43:51.594Z,15.68
2023-03-20T16:46:26.512Z,15.10
2023-03-20T16:48:58.709Z,17.38
2023-03-20T16:51:30.786Z,15.10
2023-03-20T16:53:59.443Z,15.63
2023-03-20T16:56:34.435Z,17.85
2023-03-20T16:59:17.275Z,17.42
2023-03-20T17:01:48.171Z,17.95
2023-03-20T17:04:20.798Z,15.82
2023-03-20T17:06:50.787Z,18.27
2023-03-20T17:09:25.892Z,19.27
2023-03-20T17:12:02.504Z,18.73
2023-03-20T17:14:29.779Z,19.33
2023-03-20T17:16:57.776Z,18.85
2023-03-20T17:19:24.810Z,18.85
2023-03-20T17:21:51.617Z,18.67
2023-03-20T17:24:18.496Z,18.73
2023-03-20T17:26:52.138Z,20.58
2023-03-20T17:29:18.838Z,20.83
2023-03-20T17:31:46.080Z,21.30
2023-03-20T17:34:14.899Z,18.83
2023-03-20T17:36:41.925Z,20.05
2023-03-20T17:39:16.931Z,22.63
2023-03-20T17:41:43.555Z,23.23
2023-03-20T17:44:10.113Z,22.67
2023-03-20T17:46:53.858Z,21.20
2023-03-20T17:49:26.921Z,26.45
2023-03-20T17:51:54.375Z,23.60
2023-03-20T17:54:21.421Z,23.08
2023-03-20T17:56:48.046Z,24.02
2023-03-20T17:59:14.679Z,24.90
2023-03-20T18:01:41.784Z,21.80
2023-03-20T18:04:08.445Z,24.58
2023-03-20T18:06:34.953Z,19.65
2023-03-20T18:09:05.959Z,22.25
2023-03-20T18:11:32.489Z,22.58
2023-03-20T18:14:01.891Z,25.55
2023-03-20T18:16:28.489Z,19.83
2023-03-20T18:18:55.745Z,26.38
2023-03-20T18:21:22.299Z,23.45
2023-03-20T18:23:48.926Z,22.33
2023-03-20T18:26:22.561Z,23.75
2023-03-20T18:28:50.610Z,22.30
2023-03-20T18:31:20.583Z,21.95
2023-03-20T18:33:52.472Z,25.90
2023-03-20T18:36:21.628Z,24.65
2023-03-20T18:38:48.817Z,26.75
2023-03-20T18:41:18.043Z,28.25
2023-03-20T18:43:46.489Z,27.88
2023-03-20T18:46:15.321Z,25.85
2023-03-20T18:48:42.712Z,28.48
2023-03-20T18:51:09.608Z,25.10
2023-03-20T18:53:36.429Z,28.60
2023-03-20T18:56:03.106Z,31.60
2023-03-20T18:58:31.770Z,26.48
2023-03-20T19:00:59.743Z,24.20
2023-03-20T19:03:28.450Z,28.65
2023-03-20T19:05:57.973Z,25.95
2023-03-20T19:08:24.824Z,27.27
2023-03-20T19:10:51.393Z,23.60
2023-03-20T19:13:20.203Z,24.05
2023-03-20T19:15:47.034Z,23.90
2023-03-20T19:18:17.683Z,25.35
2023-03-20T19:20:48.014Z,24.75
2023-03-20T19:23:16.568Z,29.95
2023-03-20T19:25:45.915Z,26.85
2023-03-20T19:28:21.637Z,24.40
2023-03-20T19:30:49.051Z,24.60
2023-03-20T19:33:15.532Z,27.85
2023-03-20T19:38:29.245Z,26.88
2023-03-20T19:40:55.898Z,26.67
2023-03-20T19:43:23.284Z,21.75
2023-03-20T19:45:59.222Z,25.75
2023-03-20T19:48:49.556Z,23.73
2023-03-20T19:51:20.819Z,21.90
2023-03-20T19:53:48.191Z,24.40
2023-03-20T19:56:16.832Z,25.73
2023-03-20T19:58:44.400Z,22.95
2023-03-20T20:01:16.806Z,25.20
2023-03-20T20:03:43.892Z,21.92
2023-03-20T20:06:10.493Z,22.20
2023-03-20T20:08:49.145Z,24.02
2023-03-20T20:11:20.550Z,19.40
2023-03-20T20:14:04.753Z,25.03
2023-03-20T20:16:32.979Z,26.65
2023-03-20T20:18:59.492Z,18.98
2023-03-20T20:22:13.481Z,19.58
2023-03-20T20:24:12.734Z,21.98
2023-03-20T20:26:47.884Z,19.13
2023-03-20T20:29:19.660Z,20.95
2023-03-20T20:31:46.214Z,20.58
2023-03-20T20:35:15.192Z,22.85
2023-03-20T20:39:46.179Z,18.13
2023-03-20T20:42:12.956Z,20.77
2023-03-20T20:44:40.863Z,19.42
2023-03-20T20:47:08.407Z,21.20
2023-03-20T20:49:35.158Z,20.58
2023-03-20T20:52:01.927Z,17.52
2023-03-20T20:54:28.994Z,19.88
2023-03-20T20:56:56.155Z,19.77
2023-03-20T20:59:23.350Z,16.88
2023-03-20T21:01:50.648Z,15.48
2023-03-20T21:04:17.309Z,21.08
2023-03-20T21:07:08.099Z,14.90
2023-03-20T21:09:30.382Z,15.10
2023-03-20T21:11:56.875Z,13.85
2023-03-20T21:14:23.436Z,11.15
2023-03-20T21:16:49.899Z,11.77
2023-03-20T21:19:16.422Z,14.88
2023-03-20T21:21:42.908Z,13.43
2023-03-20T21:24:30.558Z,15.02
2023-03-20T21:26:59.220Z,12.57
2023-03-20T21:29:26.828Z,12.15
2023-03-20T21:31:53.574Z,13.80
2023-03-20T21:34:20.303Z,16.08
2023-03-20T21:36:49.198Z,15.20
2023-03-20T21:39:17.485Z,13.32
2023-03-20T21:41:45.260Z,15.10
2023-03-20T21:44:17.217Z,14.35
2023-03-20T21:56:00.220Z,13.15
2023-03-20T21:58:44.523Z,15.27
2023-03-20T22:04:06.184Z,16.60
2023-03-20T22:10:05.675Z,16.70
2023-03-20T22:12:28.294Z,14.70
2023-03-20T22:15:29.046Z,14.13
2023-03-20T22:23:43.257Z,17.52
2023-03-20T22:37:37.768Z,16.83
2023-03-20T22:45:17.888Z,14.73
2023-03-20T22:47:44.596Z,16.75
2023-03-20T22:50:11.050Z,17.15
2023-03-20T22:52:48.713Z,19.48
2023-03-20T22:55:17.062Z,16.05
2023-03-20T22:57:56.267Z,16.70
2023-03-20T23:00:30.535Z,15.80
2023-03-20T23:03:06.706Z,17.52
2023-03-20T23:05:40.980Z,16.50
2023-03-20T23:08:08.985Z,14.75
2023-03-20T23:10:37.817Z,16.60
2023-03-20T23:13:04.826Z,16.10
2023-03-20T23:15:31.683Z,14.02
2023-03-20T23:17:58.236Z,13.57
2023-03-20T23:20:25.354Z,15.93
2023-03-20T23:22:51.863Z,14.85
2023-03-20T23:25:31.130Z,15.48
2023-03-20T23:28:05.372Z,14.00
2023-03-20T23:30:41.963Z,16.67
2023-03-20T23:33:11.710Z,16.75
2023-03-20T23:35:38.321Z,16.67
2023-03-20T23:38:04.819Z,20.52
2023-03-20T23:40:31.354Z,17.52
2023-03-20T23:42:57.840Z,16.00
2023-03-20T23:45:24.444Z,16.00
2023-03-20T23:47:51.091Z,16.85
2023-03-20T23:50:28.921Z,17.58
2023-03-20T23:53:13.226Z,14.05
2023-03-20T23:55:45.288Z,14.32
2023-03-20T23:58:13.025Z,15.43
